Time;durP1;ratioP1;P1;durP2;ratioP2;P2;SDS_P1;SDS_P2;PMS_P1;PMS_P2;Temp;Humidity;BMP_temperature;BMP_pressure;BME280_temperature;BME280_humidity;BME280_pressure;Samples;Min_cycle;Max_cycle;Signal;HPM_P1;HPM_P2
2021/08/26 00:07:40;;;;;;;24.58;3.85;;;14.80;99.90;;;;;;5066719;28;20049;-85
2021/08/26 00:10:08;;;;;;;17.23;2.83;;;15.00;99.90;;;;;;5050219;28;20046;-84
2021/08/26 00:12:36;;;;;;;17.50;3.30;;;14.90;99.90;;;;;;5049614;28;20064;-84
2021/08/26 00:15:03;;;;;;;21.75;4.07;;;15.00;99.90;;;;;;5015904;28;20183;-84
2021/08/26 00:17:29;;;;;;;17.23;3.63;;;15.00;99.90;;;;;;5029799;28;20130;-85
2021/08/26 00:19:55;;;;;;;18.35;2.92;;;15.10;99.90;;;;;;5013617;28;20068;-85
2021/08/26 00:22:20;;;;;;;15.85;2.20;;;15.10;99.90;;;;;;5046396;28;20049;-85
2021/08/26 00:24:46;;;;;;;9.13;2.33;;;15.20;99.90;;;;;;5047098;28;20049;-85
2021/08/26 00:27:12;;;;;;;16.00;3.03;;;15.20;99.90;;;;;;5063948;28;20489;-84
2021/08/26 00:29:38;;;;;;;20.65;2.92;;;15.20;99.90;;;;;;5039421;28;20037;-85
2021/08/26 00:32:05;;;;;;;16.95;3.00;;;15.20;99.90;;;;;;5047123;28;20048;-85
2021/08/26 00:34:31;;;;;;;14.27;3.05;;;15.20;99.90;;;;;;5036389;28;20508;-84
2021/08/26 00:36:57;;;;;;;18.48;2.45;;;15.20;99.90;;;;;;5028888;28;20049;-85
2021/08/26 00:39:22;;;;;;;13.10;2.55;;;15.20;99.90;;;;;;5045706;28;20489;-85
2021/08/26 00:41:48;;;;;;;18.92;2.70;;;15.30;99.90;;;;;;5046924;28;20050;-85
2021/08/26 00:44:14;;;;;;;15.35;2.70;;;15.30;99.90;;;;;;5047070;28;20057;-85
2021/08/26 00:46:40;;;;;;;17.25;2.80;;;15.30;99.90;;;;;;5045964;28;20049;-85
2021/08/26 00:49:12;;;;;;;15.95;2.80;;;15.30;99.90;;;;;;5030222;28;20436;-85
2021/08/26 00:51:38;;;;;;;18.80;3.38;;;15.30;99.90;;;;;;5062607;28;20199;-84
2021/08/26 00:54:04;;;;;;;20.65;3.05;;;15.40;99.90;;;;;;5042387;28;20359;-84
2021/08/26 00:56:30;;;;;;;22.27;3.83;;;15.40;99.90;;;;;;5012706;28;20061;-84
2021/08/26 00:58:59;;;;;;;26.55;4.10;;;15.40;99.90;;;;;;5063224;28;20049;-85
2021/08/26 01:01:46;;;;;;;14.40;3.17;;;15.40;99.90;;;;;;5029570;28;20045;-84
2021/08/26 01:04:30;;;;;;;24.15;3.05;;;15.30;99.90;;;;;;5029946;28;20084;-85
2021/08/26 01:07:04;;;;;;;22.27;4.60;;;15.30;99.90;;;;;;5046806;28;20055;-84
2021/08/26 01:09:37;;;;;;;21.85;3.22;;;15.30;99.90;;;;;;5061805;28;20037;-85
2021/08/26 01:12:03;;;;;;;22.00;3.25;;;15.30;99.90;;;;;;5063359;28;20448;-84
2021/08/26 01:14:29;;;;;;;16.75;2.50;;;15.30;99.90;;;;;;5028989;28;20450;-84
2021/08/26 01:16:55;;;;;;;16.30;2.88;;;15.30;99.90;;;;;;5046378;28;20049;-85
2021/08/26 01:19:21;;;;;;;18.83;3.42;;;15.30;99.90;;;;;;5045718;28;20481;-86
2021/08/26 01:21:46;;;;;;;12.52;2.28;;;15.20;99.90;;;;;;5045756;28;20095;-86
2021/08/26 01:24:16;;;;;;;11.25;1.83;;;15.20;99.90;;;;;;5013469;28;20056;-85
2021/08/26 01:26:48;;;;;;;13.30;2.40;;;15.10;99.90;;;;;;5028730;28;20045;-86
2021/08/26 01:29:15;;;;;;;9.63;2.20;;;15.10;99.90;;;;;;5062659;28;20041;-86
2021/08/26 01:31:42;;;;;;;20.90;3.03;;;15.10;99.90;;;;;;5044999;28;20045;-85
2021/08/26 01:34:09;;;;;;;17.65;3.60;;;15.20;99.90;;;;;;5062432;28;20434;-85
2021/08/26 01:36:35;;;;;;;19.10;2.63;;;15.20;99.90;;;;;;5058987;28;20041;-85
2021/08/26 01:39:19;;;;;;;14.18;3.13;;;15.20;99.90;;;;;;5062917;28;20057;-85
2021/08/26 01:41:52;;;;;;;21.45;2.72;;;15.20;99.90;;;;;;5044856;28;20055;-85
2021/08/26 01:44:27;;;;;;;17.83;2.55;;;15.30;99.90;;;;;;5045697;28;20515;-85
2021/08/26 01:46:57;;;;;;;23.17;3.47;;;15.30;99.90;;;;;;5062215;28;20052;-85
2021/08/26 01:49:27;;;;;;;13.10;3.38;;;15.30;99.90;;;;;;5046100;28;20045;-88
2021/08/26 01:51:53;;;;;;;23.50;4.28;;;15.30;99.90;;;;;;5045681;28;20077;-85
2021/08/26 01:54:18;;;;;;;14.30;3.13;;;15.30;99.90;;;;;;5063493;28;20077;-85
2021/08/26 01:56:44;;;;;;;24.02;3.67;;;15.30;99.90;;;;;;5047892;28;20240;-85
2021/08/26 01:59:10;;;;;;;23.08;3.15;;;15.30;99.90;;;;;;5048755;28;20081;-85
2021/08/26 02:01:35;;;;;;;26.15;4.75;;;15.40;99.90;;;;;;5047711;28;20043;-85
2021/08/26 02:04:01;;;;;;;22.52;3.40;;;15.50;99.90;;;;;;5048436;28;20084;-85
2021/08/26 02:06:27;;;;;;;23.85;3.80;;;15.50;99.90;;;;;;5032000;28;20489;-88
2021/08/26 02:08:52;;;;;;;27.45;4.53;;;15.50;99.90;;;;;;5047688;28;20393;-85
2021/08/26 02:11:18;;;;;;;29.30;3.90;;;15.50;99.90;;;;;;5036271;28;20176;-86
2021/08/26 02:13:44;;;;;;;18.25;4.28;;;15.50;99.90;;;;;;5048109;28;20048;-86
2021/08/26 02:16:10;;;;;;;23.33;4.13;;;15.50;99.90;;;;;;5031764;28;20049;-86
2021/08/26 02:18:36;;;;;;;29.50;4.75;;;15.50;99.90;;;;;;5030731;28;20451;-86
2021/08/26 02:21:02;;;;;;;29.00;4.10;;;15.50;99.90;;;;;;5048281;28;20048;-86
2021/08/26 02:23:28;;;;;;;31.08;4.75;;;15.50;99.90;;;;;;5064949;28;20491;-86
2021/08/26 02:25:53;;;;;;;20.42;4.43;;;15.60;99.90;;;;;;5048054;28;20059;-85
2021/08/26 02:28:19;;;;;;;32.60;5.68;;;15.70;99.90;;;;;;5031280;28;20515;-87
2021/08/26 02:30:44;;;;;;;34.17;4.88;;;15.60;99.90;;;;;;5047452;28;20041;-87
2021/08/26 02:33:10;;;;;;;32.38;5.25;;;15.60;99.90;;;;;;5048117;28;20485;-87
2021/08/26 02:35:36;;;;;;;26.77;4.90;;;15.50;99.90;;;;;;5047604;28;20489;-86
2021/08/26 02:38:01;;;;;;;22.75;3.95;;;15.40;99.90;;;;;;5030837;28;20037;-86
2021/08/26 02:40:28;;;;;;;36.50;4.93;;;15.40;99.90;;;;;;5047954;28;20097;-86
2021/08/26 02:42:53;;;;;;;30.27;4.20;;;15.40;99.90;;;;;;5047138;28;20123;-86
2021/08/26 02:45:19;;;;;;;30.80;5.25;;;15.40;99.90;;;;;;5015244;28;20129;-86
2021/08/26 02:47:45;;;;;;;28.52;4.65;;;15.40;99.90;;;;;;5042883;28;20041;-86
2021/08/26 02:50:11;;;;;;;27.17;4.50;;;15.40;99.90;;;;;;5031553;28;20040;-87
2021/08/26 02:52:36;;;;;;;36.17;5.20;;;15.40;99.90;;;;;;5047086;28;20057;-86
2021/08/26 02:55:02;;;;;;;29.80;5.40;;;15.40;99.90;;;;;;5047616;28;20405;-87
2021/08/26 02:57:28;;;;;;;40.45;6.10;;;15.50;99.90;;;;;;5047942;28;20087;-86
2021/08/26 02:59:53;;;;;;;24.67;4.00;;;15.50;99.90;;;;;;5064323;28;20045;-87
2021/08/26 03:02:19;;;;;;;35.20;4.88;;;15.50;99.90;;;;;;5047754;28;20115;-87
2021/08/26 03:04:45;;;;;;;37.10;5.70;;;15.50;99.90;;;;;;5030491;28;20068;-87
2021/08/26 03:07:10;;;;;;;37.58;5.70;;;15.50;99.90;;;;;;5047698;28;20048;-87
2021/08/26 03:09:36;;;;;;;29.42;4.50;;;15.60;99.90;;;;;;5030606;28;20453;-87
2021/08/26 03:12:04;;;;;;;30.85;4.53;;;15.70;99.90;;;;;;5047624;28;20053;-87
2021/08/26 03:14:30;;;;;;;30.58;4.93;;;15.70;99.90;;;;;;5064331;28;20049;-89
2021/08/26 03:16:55;;;;;;;31.42;4.55;;;15.80;99.90;;;;;;5046758;28;20447;-86
2021/08/26 03:19:21;;;;;;;37.35;6.55;;;15.80;99.90;;;;;;5014708;28;20056;-85
2021/08/26 03:21:47;;;;;;;28.17;5.82;;;15.90;99.90;;;;;;5013987;28;20053;-84
2021/08/26 03:24:12;;;;;;;38.72;5.95;;;15.90;99.90;;;;;;5047783;28;20041;-84
2021/08/26 03:26:38;;;;;;;34.22;6.45;;;15.90;99.90;;;;;;5037774;28;20049;-85
2021/08/26 03:29:04;;;;;;;28.88;5.10;;;15.90;99.90;;;;;;5053883;28;20042;-86
2021/08/26 03:31:30;;;;;;;26.98;5.13;;;15.90;99.90;;;;;;5027784;28;20042;-87
2021/08/26 03:33:55;;;;;;;31.38;5.57;;;15.90;99.90;;;;;;5036890;28;20037;-86
2021/08/26 03:36:26;;;;;;;37.47;6.97;;;15.90;99.90;;;;;;5047711;28;20588;-86
2021/08/26 03:38:53;;;;;;;35.53;5.80;;;15.90;99.90;;;;;;5030072;28;20103;-86
2021/08/26 03:41:19;;;;;;;30.95;5.57;;;15.80;99.90;;;;;;5027987;28;20136;-86
2021/08/26 03:43:44;;;;;;;37.13;6.10;;;15.80;99.90;;;;;;5046988;28;20533;-86
2021/08/26 03:46:10;;;;;;;37.20;6.40;;;15.70;99.90;;;;;;5047309;28;20056;-86
2021/08/26 03:48:36;;;;;;;30.15;5.43;;;15.70;99.90;;;;;;5029879;28;20045;-87
2021/08/26 03:51:02;;;;;;;33.08;5.57;;;15.70;99.90;;;;;;5034111;28;20044;-85
2021/08/26 03:53:28;;;;;;;42.55;7.05;;;15.70;99.90;;;;;;5034084;28;20053;-85
2021/08/26 03:55:53;;;;;;;33.25;5.68;;;15.70;99.90;;;;;;5033508;28;20737;-85
2021/08/26 03:58:19;;;;;;;27.10;4.20;;;15.80;99.90;;;;;;5034349;28;20047;-85
2021/08/26 04:00:45;;;;;;;31.42;4.85;;;15.80;99.90;;;;;;5050493;28;20045;-86
2021/08/26 04:03:10;;;;;;;15.15;4.13;;;15.90;99.90;;;;;;5050530;28;20077;-85
2021/08/26 04:05:36;;;;;;;30.40;4.53;;;16.00;99.90;;;;;;5066457;28;20444;-88
2021/08/26 04:08:02;;;;;;;17.25;3.33;;;16.00;99.90;;;;;;5050600;28;20049;-85
2021/08/26 04:10:27;;;;;;;29.80;5.70;;;16.10;99.90;;;;;;5050728;28;20047;-86
2021/08/26 04:12:53;;;;;;;17.02;4.13;;;16.10;99.90;;;;;;5019542;28;20416;-85
2021/08/26 04:15:19;;;;;;;33.33;5.15;;;16.10;99.90;;;;;;5050721;28;20095;-84
2021/08/26 04:17:44;;;;;;;30.65;4.80;;;16.10;99.90;;;;;;5048850;28;20103;-85
2021/08/26 04:20:10;;;;;;;25.02;4.57;;;16.10;99.90;;;;;;5017624;28;20036;-85
2021/08/26 04:22:36;;;;;;;28.98;5.25;;;16.00;99.90;;;;;;5050404;28;20049;-87
2021/08/26 04:25:03;;;;;;;41.42;6.65;;;16.10;99.90;;;;;;5066954;28;20068;-85
2021/08/26 04:27:29;;;;;;;33.30;4.72;;;16.10;99.90;;;;;;5034273;28;20513;-86
2021/08/26 04:29:55;;;;;;;35.38;5.40;;;16.00;99.90;;;;;;5066171;28;20045;-85
2021/08/26 04:32:20;;;;;;;33.17;5.38;;;16.00;99.90;;;;;;5050260;28;20065;-85
2021/08/26 04:34:46;;;;;;;37.30;5.90;;;16.00;99.90;;;;;;5032827;28;20064;-85
2021/08/26 04:37:12;;;;;;;33.25;5.50;;;15.90;99.90;;;;;;5050681;28;20049;-84
2021/08/26 04:39:37;;;;;;;30.67;4.38;;;15.90;99.90;;;;;;5049678;28;20045;-87
2021/08/26 04:42:03;;;;;;;32.53;5.07;;;15.80;99.90;;;;;;5066537;28;20116;-85
2021/08/26 04:44:29;;;;;;;32.38;4.88;;;15.80;99.90;;;;;;5050403;28;20051;-85
2021/08/26 04:46:54;;;;;;;40.35;4.75;;;15.70;99.90;;;;;;5065838;28;20053;-85
2021/08/26 04:49:20;;;;;;;28.10;4.93;;;15.70;99.90;;;;;;5049655;28;20037;-86
2021/08/26 04:51:46;;;;;;;37.70;6.28;;;15.70;99.90;;;;;;5032321;28;20049;-86
2021/08/26 04:54:12;;;;;;;41.13;5.72;;;15.70;99.90;;;;;;5033602;28;20071;-85
2021/08/26 04:56:38;;;;;;;31.33;5.03;;;15.60;99.90;;;;;;5049952;28;20053;-87
2021/08/26 04:59:05;;;;;;;37.30;4.72;;;15.60;99.90;;;;;;5049198;28;20071;-85
2021/08/26 05:01:31;;;;;;;33.15;5.40;;;15.60;99.90;;;;;;5049928;28;20056;-85
2021/08/26 05:03:57;;;;;;;26.23;4.65;;;15.60;99.90;;;;;;5048646;28;20045;-85
2021/08/26 05:06:22;;;;;;;28.88;5.55;;;15.70;99.90;;;;;;5049915;28;20048;-85
2021/08/26 05:08:48;;;;;;;28.77;4.72;;;15.70;99.90;;;;;;5065596;28;20048;-85
2021/08/26 05:11:20;;;;;;;36.70;7.03;;;15.80;99.90;;;;;;5049660;28;20056;-84
2021/08/26 05:13:46;;;;;;;44.58;6.13;;;15.80;99.90;;;;;;5015892;28;20045;-84
2021/08/26 05:16:12;;;;;;;32.67;5.40;;;15.90;99.90;;;;;;5016501;28;20064;-85
2021/08/26 05:18:38;;;;;;;31.58;5.63;;;16.00;99.90;;;;;;5049364;28;20166;-85
2021/08/26 05:21:04;;;;;;;32.38;5.75;;;16.00;99.90;;;;;;5032212;28;20148;-84
2021/08/26 05:23:30;;;;;;;29.83;5.03;;;16.10;99.90;;;;;;5066374;28;20045;-85
2021/08/26 05:25:55;;;;;;;43.08;5.72;;;16.10;99.90;;;;;;5032533;28;20374;-85
2021/08/26 05:28:21;;;;;;;35.88;5.97;;;16.10;99.90;;;;;;5048935;28;20040;-84
2021/08/26 05:30:47;;;;;;;33.42;5.03;;;16.10;99.90;;;;;;5031708;28;20045;-85
2021/08/26 05:33:13;;;;;;;40.45;5.88;;;16.10;99.90;;;;;;5032384;28;20102;-85
2021/08/26 05:35:38;;;;;;;30.98;5.22;;;16.20;99.90;;;;;;5032913;28;20045;-85
2021/08/26 05:38:04;;;;;;;35.30;6.00;;;16.20;99.90;;;;;;5048266;28;20649;-84
2021/08/26 05:40:30;;;;;;;31.55;6.28;;;16.20;99.90;;;;;;5032152;28;20041;-85
2021/08/26 05:42:55;;;;;;;34.53;6.53;;;16.20;99.90;;;;;;5048404;28;20048;-85
2021/08/26 05:45:21;;;;;;;39.33;5.30;;;16.30;99.90;;;;;;5049171;28;20076;-84
2021/08/26 05:47:48;;;;;;;42.15;6.78;;;16.30;99.90;;;;;;5048420;28;20056;-86
2021/08/26 05:50:13;;;;;;;37.05;6.45;;;16.40;99.90;;;;;;5048265;28;20696;-83
2021/08/26 05:52:39;;;;;;;36.08;5.75;;;16.50;99.90;;;;;;5032471;28;20045;-84
2021/08/26 05:55:05;;;;;;;41.33;6.68;;;16.60;99.90;;;;;;5031092;28;20228;-84
2021/08/26 05:57:31;;;;;;;41.65;7.03;;;16.70;99.90;;;;;;5050142;28;20118;-85
2021/08/26 05:59:56;;;;;;;33.83;5.20;;;16.70;99.90;;;;;;5031222;28;20195;-84
2021/08/26 06:02:22;;;;;;;32.63;5.53;;;16.80;99.90;;;;;;5032465;28;20048;-85
2021/08/26 06:04:48;;;;;;;27.98;4.93;;;16.80;99.90;;;;;;5065016;28;20477;-86
2021/08/26 06:07:13;;;;;;;57.03;8.45;;;16.90;99.90;;;;;;5031369;28;20548;-83
2021/08/26 06:09:40;;;;;;;33.60;5.60;;;16.90;99.90;;;;;;5031945;28;20041;-84
2021/08/26 06:12:05;;;;;;;36.72;5.88;;;16.90;99.90;;;;;;5046857;28;20049;-84
2021/08/26 06:14:31;;;;;;;39.13;5.90;;;17.00;99.90;;;;;;5015226;28;20052;-85
2021/08/26 06:16:57;;;;;;;34.22;6.60;;;17.00;99.90;;;;;;5064504;28;20135;-84
2021/08/26 06:19:23;;;;;;;44.53;6.55;;;17.10;99.90;;;;;;5038572;28;20052;-84
2021/08/26 06:21:48;;;;;;;37.90;6.55;;;17.10;99.90;;;;;;5047941;28;20132;-85
2021/08/26 06:24:14;;;;;;;28.35;5.75;;;17.10;99.90;;;;;;5047914;28;20052;-84
2021/08/26 06:26:40;;;;;;;35.90;6.15;;;17.10;99.90;;;;;;5018083;28;20178;-84
2021/08/26 06:29:06;;;;;;;39.53;7.00;;;17.00;99.90;;;;;;5045811;28;20127;-85
2021/08/26 06:31:31;;;;;;;45.05;6.47;;;17.10;99.90;;;;;;5030826;28;20040;-85
2021/08/26 06:33:57;;;;;;;34.30;7.10;;;17.00;99.90;;;;;;5047423;28;20053;-84
2021/08/26 06:36:23;;;;;;;36.90;6.35;;;17.00;99.90;;;;;;5064948;28;20091;-84
2021/08/26 06:38:48;;;;;;;38.45;5.82;;;17.00;99.90;;;;;;5064200;28;20388;-87
2021/08/26 06:41:14;;;;;;;38.17;5.85;;;17.00;99.90;;;;;;5031023;28;20150;-84
2021/08/26 06:43:40;;;;;;;33.50;5.45;;;17.00;99.90;;;;;;5006326;28;20045;-85
2021/08/26 06:46:05;;;;;;;32.97;6.18;;;17.00;99.90;;;;;;5047500;28;20056;-86
2021/08/26 06:48:31;;;;;;;33.83;5.10;;;17.00;99.90;;;;;;5048019;28;20416;-86
2021/08/26 06:50:57;;;;;;;31.67;4.75;;;17.00;99.90;;;;;;5030584;28;20049;-85
2021/08/26 06:53:22;;;;;;;29.27;6.10;;;17.00;99.90;;;;;;5031029;28;20057;-85
2021/08/26 06:55:48;;;;;;;33.10;6.25;;;17.10;99.90;;;;;;5064201;28;20507;-84
2021/08/26 06:58:14;;;;;;;35.45;5.65;;;17.10;99.90;;;;;;5014265;28;20967;-84
2021/08/26 07:00:39;;;;;;;35.53;5.63;;;17.10;99.90;;;;;;5047510;28;20056;-84
2021/08/26 07:03:05;;;;;;;31.50;5.40;;;17.30;99.90;;;;;;5047117;28;20515;-83
2021/08/26 07:05:31;;;;;;;34.10;6.30;;;17.30;99.90;;;;;;5060369;28;20072;-85
2021/08/26 07:07:56;;;;;;;37.95;6.85;;;17.40;99.90;;;;;;5036617;28;20057;-85
2021/08/26 07:10:22;;;;;;;31.67;6.28;;;17.40;99.90;;;;;;5046844;28;20755;-86
2021/08/26 07:12:48;;;;;;;31.77;5.75;;;17.50;99.90;;;;;;5047694;28;20118;-84
2021/08/26 07:15:13;;;;;;;38.15;5.72;;;17.40;99.90;;;;;;5030134;28;20300;-84
2021/08/26 07:17:39;;;;;;;35.25;6.68;;;17.40;99.90;;;;;;5064257;28;20128;-85
2021/08/26 07:20:06;;;;;;;32.35;6.25;;;17.30;99.90;;;;;;4997773;28;20123;-84
2021/08/26 07:22:31;;;;;;;32.08;5.75;;;17.40;99.90;;;;;;5064180;28;20041;-85
2021/08/26 07:24:57;;;;;;;37.30;6.05;;;17.40;99.90;;;;;;5017678;28;20049;-85
2021/08/26 07:27:23;;;;;;;35.40;6.00;;;17.40;99.90;;;;;;5018329;28;20040;-85
2021/08/26 07:29:48;;;;;;;30.35;6.03;;;17.50;99.90;;;;;;5034729;28;20048;-85
2021/08/26 07:32:14;;;;;;;34.97;5.55;;;17.50;99.90;;;;;;5033994;28;20139;-85
2021/08/26 07:34:40;;;;;;;33.50;5.35;;;17.50;99.90;;;;;;5034273;28;20044;-85
2021/08/26 07:37:05;;;;;;;31.13;6.25;;;17.50;99.90;;;;;;5033861;28;20037;-85
2021/08/26 07:39:31;;;;;;;27.80;5.50;;;17.50;99.90;;;;;;5050741;28;20144;-86
2021/08/26 07:41:57;;;;;;;32.60;5.88;;;17.50;99.90;;;;;;5029779;28;20132;-87
2021/08/26 07:44:22;;;;;;;43.63;6.50;;;17.50;99.90;;;;;;5058022;28;20080;-86
2021/08/26 07:46:48;;;;;;;34.20;6.15;;;17.40;99.90;;;;;;5052886;28;20453;-85
2021/08/26 07:49:14;;;;;;;30.50;5.78;;;17.30;99.90;;;;;;5033462;28;20045;-85
2021/08/26 07:51:40;;;;;;;31.60;4.68;;;17.30;99.90;;;;;;5019585;28;20041;-85
2021/08/26 07:54:05;;;;;;;30.10;4.68;;;17.30;99.90;;;;;;5046838;28;20049;-85
2021/08/26 07:56:31;;;;;;;25.70;5.18;;;17.30;99.90;;;;;;5032344;28;20056;-84
2021/08/26 07:58:57;;;;;;;34.17;4.47;;;17.20;99.90;;;;;;5025895;28;20091;-87
2021/08/26 08:01:23;;;;;;;30.52;5.45;;;17.10;99.90;;;;;;5034294;28;20053;-84
2021/08/26 08:03:49;;;;;;;35.90;5.28;;;17.20;99.90;;;;;;5015911;28;20374;-85
2021/08/26 08:06:16;;;;;;;30.30;6.05;;;17.30;99.90;;;;;;5040594;28;20140;-86
2021/08/26 08:08:42;;;;;;;25.83;4.18;;;17.40;99.90;;;;;;5032062;28;20045;-85
2021/08/26 08:11:07;;;;;;;28.88;5.28;;;17.50;99.90;;;;;;5046162;28;20038;-85
2021/08/26 08:13:33;;;;;;;32.00;5.35;;;17.60;99.90;;;;;;5042216;28;20415;-85
2021/08/26 08:16:00;;;;;;;29.20;5.45;;;17.60;99.90;;;;;;5049785;28;20124;-89
2021/08/26 08:18:26;;;;;;;32.03;5.38;;;17.70;99.90;;;;;;5044656;28;20549;-87
2021/08/26 08:20:52;;;;;;;27.40;5.65;;;17.80;99.90;;;;;;5033295;28;20705;-86
2021/08/26 08:23:18;;;;;;;25.98;4.55;;;17.90;99.90;;;;;;5033208;28;20120;-86
2021/08/26 08:25:43;;;;;;;29.83;5.45;;;18.00;99.90;;;;;;5040978;28;20041;-85
2021/08/26 08:28:14;;;;;;;33.40;6.15;;;18.10;99.90;;;;;;5031444;28;20491;-85
2021/08/26 08:30:41;;;;;;;25.65;5.47;;;18.20;99.90;;;;;;5057659;28;20033;-86
2021/08/26 08:33:07;;;;;;;32.50;5.45;;;18.20;99.90;;;;;;5031382;28;20092;-86
2021/08/26 08:35:33;;;;;;;30.40;5.15;;;18.30;99.90;;;;;;5043495;28;20045;-86
2021/08/26 08:37:58;;;;;;;27.17;5.30;;;18.40;99.90;;;;;;5014134;28;20045;-86
2021/08/26 08:40:25;;;;;;;23.25;5.80;;;18.50;99.90;;;;;;5035268;28;20049;-85
2021/08/26 08:42:52;;;;;;;26.33;4.35;;;18.50;99.90;;;;;;5062968;28;20080;-86
2021/08/26 08:45:18;;;;;;;27.58;5.57;;;18.50;99.90;;;;;;5049426;28;20107;-85
2021/08/26 08:47:50;;;;;;;24.90;5.40;;;18.50;99.90;;;;;;5033568;28;20048;-85
2021/08/26 08:50:16;;;;;;;26.05;5.28;;;18.40;99.90;;;;;;5032398;28;20477;-85
2021/08/26 08:52:42;;;;;;;23.45;4.93;;;18.40;99.90;;;;;;5000525;28;20139;-86
2021/08/26 08:55:10;;;;;;;30.30;4.90;;;18.40;99.90;;;;;;4999611;28;20132;-85
2021/08/26 08:57:40;;;;;;;21.63;4.75;;;18.40;99.90;;;;;;5050264;28;20501;-85
2021/08/26 09:00:07;;;;;;;;;;;18.40;99.90;;;;;;5049256;28;20087;-86
2021/08/26 09:02:33;;;;;;;22.63;4.80;;;18.40;99.90;;;;;;5000563;28;19921;-86
2021/08/26 09:05:00;;;;;;;23.63;4.60;;;18.30;99.90;;;;;;5049718;28;20053;-87
2021/08/26 09:07:29;;;;;;;35.30;5.28;;;18.40;99.90;;;;;;5031889;28;20080;-87
2021/08/26 09:09:55;;;;;;;30.08;5.38;;;18.40;99.90;;;;;;5030643;28;20052;-86
2021/08/26 09:12:44;;;;;;;18.60;4.78;;;18.50;99.90;;;;;;5031561;28;20049;-86
2021/08/26 09:15:10;;;;;;;27.45;4.43;;;18.60;99.90;;;;;;5031358;28;20394;-85
2021/08/26 09:17:36;;;;;;;30.33;6.03;;;18.70;99.90;;;;;;5049447;28;20140;-86
2021/08/26 09:20:08;;;;;;;16.15;3.58;;;18.80;99.90;;;;;;5049388;28;20124;-87
2021/08/26 09:22:34;;;;;;;20.70;3.63;;;18.80;99.90;;;;;;5033895;28;20094;-91
2021/08/26 09:25:00;;;;;;;29.60;4.40;;;19.00;99.90;;;;;;5031844;28;20045;-88
2021/08/26 09:27:32;;;;;;;19.67;3.65;;;19.10;99.90;;;;;;5046611;28;20037;-88
2021/08/26 09:30:16;;;;;;;19.92;4.15;;;19.10;99.90;;;;;;5046864;28;20504;-87
2021/08/26 09:32:48;;;;;;;16.95;3.65;;;19.00;99.90;;;;;;5026424;28;20071;-88
2021/08/26 09:35:29;;;;;;;17.75;3.58;;;19.00;99.90;;;;;;5031405;28;20488;-88
2021/08/26 09:37:57;;;;;;;22.05;4.20;;;19.00;99.90;;;;;;5031762;28;20041;-88
2021/08/26 09:40:28;;;;;;;20.00;3.13;;;18.90;99.90;;;;;;5047641;28;20485;-88
2021/08/26 09:43:05;;;;;;;21.20;3.40;;;18.90;99.90;;;;;;5049304;28;20111;-88
2021/08/26 09:45:38;;;;;;;25.13;4.07;;;19.00;99.90;;;;;;5031941;28;20041;-88
2021/08/26 09:48:15;;;;;;;20.67;4.03;;;19.00;99.90;;;;;;5049212;28;20040;-88
2021/08/26 09:50:52;;;;;;;23.33;4.22;;;18.90;99.90;;;;;;5065593;28;20039;-87
2021/08/26 09:53:31;;;;;;;9.57;1.85;;;18.80;99.90;;;;;;5031335;28;20107;-88
2021/08/26 09:55:57;;;;;;;5.32;1.40;;;18.60;99.90;;;;;;5054618;28;20063;-87
2021/08/26 09:58:25;;;;;;;3.78;1.15;;;18.40;99.90;;;;;;5047992;28;20057;-87
2021/08/26 10:01:09;;;;;;;5.60;1.50;;;18.40;99.90;;;;;;5031706;28;20424;-89
2021/08/26 10:03:35;;;;;;;5.95;1.35;;;18.40;99.90;;;;;;5048352;28;20060;-88
2021/08/26 10:06:01;;;;;;;4.03;1.20;;;18.70;99.90;;;;;;5032397;28;20057;-87
2021/08/26 10:08:30;;;;;;;3.88;1.08;;;18.90;99.90;;;;;;5030916;28;20045;-87
2021/08/26 10:10:56;;;;;;;2.60;0.83;;;18.90;99.90;;;;;;5048574;28;20120;-88
2021/08/26 10:13:23;;;;;;;3.90;1.00;;;18.80;99.90;;;;;;5030829;28;20048;-88
2021/08/26 10:15:49;;;;;;;5.07;1.27;;;18.70;99.90;;;;;;5047584;28;20037;-88
2021/08/26 10:18:18;;;;;;;7.38;1.10;;;18.80;99.90;;;;;;5047404;28;20500;-88
2021/08/26 10:20:44;;;;;;;9.73;0.93;;;18.90;99.90;;;;;;5032347;28;20067;-87
2021/08/26 10:23:11;;;;;;;4.50;0.95;;;19.10;99.90;;;;;;5015399;28;20349;-88
2021/08/26 10:25:39;;;;;;;2.47;0.70;;;19.00;99.90;;;;;;5048458;28;20562;-88
2021/08/26 10:28:07;;;;;;;6.07;1.00;;;19.00;99.90;;;;;;5018074;28;20063;-88
2021/08/26 10:30:39;;;;;;;6.90;1.75;;;19.20;99.90;;;;;;5014791;28;20110;-88
2021/08/26 10:33:12;;;;;;;3.13;0.60;;;19.30;99.90;;;;;;5031872;28;20463;-88
2021/08/26 10:35:50;;;;;;;3.05;0.95;;;19.30;99.90;;;;;;5031639;28;20503;-88
2021/08/26 10:38:25;;;;;;;6.70;0.52;;;19.20;99.90;;;;;;5047306;28;20056;-88
2021/08/26 10:40:51;;;;;;;5.05;0.77;;;19.00;99.90;;;;;;5031762;28;20051;-87
2021/08/26 10:43:34;;;;;;;1.13;0.57;;;18.80;99.90;;;;;;5030859;28;20059;-88
2021/08/26 10:46:01;;;;;;;4.43;0.63;;;18.80;99.90;;;;;;5031756;28;20055;-88
2021/08/26 10:48:27;;;;;;;6.80;0.77;;;18.80;99.90;;;;;;5047032;28;20052;-87
2021/08/26 10:51:09;;;;;;;3.13;0.88;;;18.80;99.90;;;;;;5048265;28;20037;-87
2021/08/26 10:53:47;;;;;;;8.73;0.73;;;18.90;99.90;;;;;;5030407;28;20141;-88
2021/08/26 10:56:25;;;;;;;6.32;0.80;;;18.90;99.90;;;;;;5030941;28;20061;-89
2021/08/26 10:58:59;;;;;;;3.60;0.80;;;19.00;99.90;;;;;;5031003;28;20179;-86
2021/08/26 11:01:27;;;;;;;7.03;0.90;;;19.20;99.90;;;;;;5047328;28;20167;-87
2021/08/26 11:04:01;;;;;;;8.07;1.00;;;19.10;99.90;;;;;;5064064;28;20094;-88
2021/08/26 11:06:29;;;;;;;3.97;0.60;;;19.10;99.90;;;;;;5064150;28;20057;-87
2021/08/26 11:09:19;;;;;;;8.23;1.73;;;18.80;99.90;;;;;;5064649;28;20049;-87
2021/08/26 11:11:47;;;;;;;;;;;18.60;99.90;;;;;;5020437;28;20446;-87
2021/08/26 11:14:13;;;;;;;4.57;0.73;;;18.60;99.90;;;;;;5047900;28;19970;-87
2021/08/26 11:16:47;;;;;;;3.85;0.90;;;18.60;99.90;;;;;;5030060;28;20084;-88
2021/08/26 11:19:16;;;;;;;5.38;1.20;;;18.60;99.90;;;;;;5064339;28;20049;-87
2021/08/26 11:21:47;;;;;;;4.50;0.85;;;18.70;99.90;;;;;;5064459;28;20109;-87
2021/08/26 11:24:16;;;;;;;8.48;1.17;;;18.80;99.90;;;;;;5064232;28;20412;-87
2021/08/26 11:26:48;;;;;;;8.43;1.10;;;18.90;99.90;;;;;;5030871;28;20044;-88
2021/08/26 11:29:22;;;;;;;6.82;1.17;;;18.90;99.90;;;;;;5031285;28;20117;-87
2021/08/26 11:31:54;;;;;;;7.13;0.90;;;18.90;99.90;;;;;;5017857;28;20041;-88
2021/08/26 11:34:20;;;;;;;4.95;1.23;;;19.00;99.90;;;;;;5047023;28;20127;-87
2021/08/26 11:36:59;;;;;;;5.03;0.90;;;19.00;99.90;;;;;;5031009;28;20120;-87
2021/08/26 11:39:25;;;;;;;7.67;1.00;;;19.00;99.90;;;;;;5030265;28;20049;-87
2021/08/26 11:41:51;;;;;;;11.50;1.48;;;19.00;99.90;;;;;;5047495;28;20048;-87
2021/08/26 11:44:17;;;;;;;4.00;1.25;;;18.90;99.90;;;;;;5030069;28;20060;-87
2021/08/26 11:46:43;;;;;;;10.15;0.88;;;18.90;99.90;;;;;;5030596;28;20032;-88
2021/08/26 11:49:09;;;;;;;3.85;0.85;;;18.90;99.90;;;;;;5047492;28;20432;-87
2021/08/26 11:51:35;;;;;;;3.88;1.08;;;19.00;99.90;;;;;;5046098;28;20055;-87
2021/08/26 11:54:11;;;;;;;2.20;0.77;;;19.10;99.90;;;;;;5030376;28;20074;-87
2021/08/26 11:56:52;;;;;;;6.35;1.52;;;19.20;99.90;;;;;;5029652;28;20432;-87
2021/08/26 11:59:27;;;;;;;8.55;1.02;;;19.10;99.90;;;;;;5031004;28;20134;-87
2021/08/26 12:02:19;;;;;;;9.85;1.65;;;19.30;99.90;;;;;;5030520;28;20127;-87
2021/08/26 12:04:47;;;;;;;9.90;1.73;;;19.20;99.90;;;;;;5029520;28;20404;-88
2021/08/26 12:07:33;;;;;;;10.65;1.08;;;19.20;99.90;;;;;;5064150;28;20077;-87
2021/08/26 12:10:21;;;;;;;3.47;0.80;;;19.30;99.90;;;;;;5031668;28;20088;-88
2021/08/26 12:12:50;;;;;;;4.63;0.73;;;19.40;99.90;;;;;;5067218;28;20091;-88
2021/08/26 12:15:32;;;;;;;4.22;1.25;;;19.30;99.90;;;;;;5067766;28;20041;-87
2021/08/26 12:18:05;;;;;;;5.53;1.58;;;19.40;99.90;;;;;;5030108;28;20037;-87
2021/08/26 12:20:33;;;;;;;1.85;0.77;;;19.40;99.90;;;;;;5057955;28;20516;-88
2021/08/26 12:22:59;;;;;;;9.80;0.88;;;19.40;99.90;;;;;;5017343;28;20048;-88
2021/08/26 12:25:29;;;;;;;9.88;1.70;;;19.40;99.90;;;;;;5035483;28;20068;-87
2021/08/26 12:27:58;;;;;;;8.98;1.27;;;19.30;99.90;;;;;;5017424;28;20108;-87
2021/08/26 12:30:54;;;;;;;7.18;1.13;;;19.20;99.90;;;;;;5033025;28;20102;-88
2021/08/26 12:33:21;;;;;;;3.50;1.10;;;19.10;99.90;;;;;;5014291;28;20132;-88
2021/08/26 12:35:51;;;;;;;8.10;1.23;;;19.00;99.90;;;;;;5032586;28;20064;-87
2021/08/26 12:38:35;;;;;;;7.15;1.15;;;18.90;99.90;;;;;;5029926;28;20049;-87
2021/08/26 12:41:06;;;;;;;3.47;1.00;;;18.80;99.90;;;;;;5013973;28;20436;-88
2021/08/26 12:43:41;;;;;;;8.38;1.67;;;18.70;99.90;;;;;;5016662;28;20081;-88
2021/08/26 12:46:10;;;;;;;6.68;1.17;;;18.50;99.90;;;;;;5022475;28;20061;-88
2021/08/26 12:48:38;;;;;;;6.57;1.02;;;18.40;99.90;;;;;;5044714;28;20060;-88
2021/08/26 12:51:26;;;;;;;5.22;0.70;;;18.50;99.90;;;;;;5024824;28;20139;-87